Terminal Aerodrome Forecast
Issued by NWS Nashville, TN

Home | Current Version | Previous Version | Text Only | Print | Product List | Glossary On
Versions: 1 2 3 4 5 6 7 8 9 10 11 12 13 14 15 16 17 18 19 20 21 22 23 24
148
FTUS44 KOHX 031155 AAA
TAFCSV
TAF AMD
KCSV 031155Z 0312/0412 31004KT 6SM BR OVC020
      TEMPO 0312/0313 4SM BR OVC007
     FM031500 30007KT P6SM OVC015
     FM031700 31009KT P6SM OVC035
     FM040000 30004KT P6SM BKN040=

USA.gov is the U.S. government's official web portal to all federal, state and local government web resources and services.